sensor_id;sensor_type;location;lat;lon;timestamp;pressure;altitude;pressure_sealevel;temperature;humidity
57827;BME280;43656;57.746;11.780;2022-10-04T00:02:22;101615.91;;;7.46;100.00
57827;BME280;43656;57.746;11.780;2022-10-04T00:04:53;101619.69;;;7.62;100.00
57827;BME280;43656;57.746;11.780;2022-10-04T00:07:28;101608.16;;;7.69;100.00
57827;BME280;43656;57.746;11.780;2022-10-04T00:10:02;101624.50;;;7.92;100.00
57827;BME280;43656;57.746;11.780;2022-10-04T00:12:38;101612.31;;;8.14;100.00
57827;BME280;43656;57.746;11.780;2022-10-04T00:15:36;101597.09;;;8.15;100.00
57827;BME280;43656;57.746;11.780;2022-10-04T00:25:47;101616.97;;;8.63;100.00
57827;BME280;43656;57.746;11.780;2022-10-04T00:44:22;101603.69;;;9.27;100.00
57827;BME280;43656;57.746;11.780;2022-10-04T00:46:51;101576.84;;;9.10;100.00
57827;BME280;43656;57.746;11.780;2022-10-04T00:49:21;101574.66;;;9.22;100.00
57827;BME280;43656;57.746;11.780;2022-10-04T00:52:00;101578.88;;;9.25;100.00
57827;BME280;43656;57.746;11.780;2022-10-04T00:54:31;101562.09;;;9.06;100.00
57827;BME280;43656;57.746;11.780;2022-10-04T00:57:03;101563.97;;;9.06;100.00
57827;BME280;43656;57.746;11.780;2022-10-04T00:59:41;101571.34;;;9.04;100.00
57827;BME280;43656;57.746;11.780;2022-10-04T01:02:20;101549.22;;;8.93;100.00
57827;BME280;43656;57.746;11.780;2022-10-04T01:05:08;101595.13;;;9.23;100.00
57827;BME280;43656;57.746;11.780;2022-10-04T01:07:41;101555.91;;;9.06;100.00
57827;BME280;43656;57.746;11.780;2022-10-04T01:10:17;101547.19;;;8.96;100.00
57827;BME280;43656;57.746;11.780;2022-10-04T01:28:54;101580.50;;;9.42;100.00
57827;BME280;43656;57.746;11.780;2022-10-04T01:31:20;101585.06;;;9.25;100.00
57827;BME280;43656;57.746;11.780;2022-10-04T01:33:47;101591.31;;;9.17;100.00
57827;BME280;43656;57.746;11.780;2022-10-04T01:36:13;101535.81;;;8.85;100.00
57827;BME280;43656;57.746;11.780;2022-10-04T01:38:38;101580.38;;;9.19;100.00
57827;BME280;43656;57.746;11.780;2022-10-04T01:41:04;101565.59;;;9.23;100.00
57827;BME280;43656;57.746;11.780;2022-10-04T01:43:36;101545.16;;;9.14;100.00
57827;BME280;43656;57.746;11.780;2022-10-04T01:46:17;101594.03;;;9.57;100.00
57827;BME280;43656;57.746;11.780;2022-10-04T01:48:45;101562.38;;;9.44;100.00
57827;BME280;43656;57.746;11.780;2022-10-04T01:51:20;101557.63;;;9.46;100.00
57827;BME280;43656;57.746;11.780;2022-10-04T01:56:23;101558.13;;;9.50;100.00
57827;BME280;43656;57.746;11.780;2022-10-04T01:58:57;101581.59;;;9.64;100.00
57827;BME280;43656;57.746;11.780;2022-10-04T02:01:36;101574.03;;;9.68;100.00
57827;BME280;43656;57.746;11.780;2022-10-04T02:04:10;101557.63;;;9.54;100.00
57827;BME280;43656;57.746;11.780;2022-10-04T02:06:38;101562.13;;;9.62;100.00
57827;BME280;43656;57.746;11.780;2022-10-04T02:09:15;101548.34;;;9.65;100.00
57827;BME280;43656;57.746;11.780;2022-10-04T02:11:43;101511.47;;;9.51;100.00
57827;BME280;43656;57.746;11.780;2022-10-04T02:14:14;101547.66;;;9.71;100.00
57827;BME280;43656;57.746;11.780;2022-10-04T02:16:44;101567.63;;;10.00;100.00
57827;BME280;43656;57.746;11.780;2022-10-04T02:19:13;101533.63;;;9.84;100.00
57827;BME280;43656;57.746;11.780;2022-10-04T02:21:40;101525.88;;;9.89;100.00
57827;BME280;43656;57.746;11.780;2022-10-04T02:24:06;101530.50;;;10.03;100.00
57827;BME280;43656;57.746;11.780;2022-10-04T02:26:33;101558.75;;;10.30;100.00
57827;BME280;43656;57.746;11.780;2022-10-04T02:28:58;101518.25;;;10.24;100.00
57827;BME280;43656;57.746;11.780;2022-10-04T02:31:24;101475.16;;;10.09;100.00
57827;BME280;43656;57.746;11.780;2022-10-04T02:34:09;101547.53;;;10.50;100.00
57827;BME280;43656;57.746;11.780;2022-10-04T02:36:35;101551.44;;;10.62;100.00
57827;BME280;43656;57.746;11.780;2022-10-04T02:41:42;101506.50;;;10.48;100.00
57827;BME280;43656;57.746;11.780;2022-10-04T02:47:11;101524.28;;;10.72;100.00
57827;BME280;43656;57.746;11.780;2022-10-04T02:55:19;101523.81;;;10.68;100.00
57827;BME280;43656;57.746;11.780;2022-10-04T02:57:40;101535.88;;;10.72;100.00
57827;BME280;43656;57.746;11.780;2022-10-04T03:02:42;101531.66;;;10.55;100.00
57827;BME280;43656;57.746;11.780;2022-10-04T03:05:26;101550.56;;;10.47;100.00
57827;BME280;43656;57.746;11.780;2022-10-04T03:07:52;101508.50;;;10.23;100.00
57827;BME280;43656;57.746;11.780;2022-10-04T03:10:17;101519.41;;;10.29;100.00
57827;BME280;43656;57.746;11.780;2022-10-04T03:12:49;101534.66;;;10.37;100.00
57827;BME280;43656;57.746;11.780;2022-10-04T03:15:15;101489.75;;;10.15;100.00
57827;BME280;43656;57.746;11.780;2022-10-04T03:17:42;101484.06;;;10.09;100.00
57827;BME280;43656;57.746;11.780;2022-10-04T03:20:10;101509.00;;;10.26;100.00
57827;BME280;43656;57.746;11.780;2022-10-04T03:22:40;101517.16;;;10.41;100.00
57827;BME280;43656;57.746;11.780;2022-10-04T03:25:14;101532.38;;;10.49;100.00
57827;BME280;43656;57.746;11.780;2022-10-04T03:27:42;101524.59;;;10.54;100.00
57827;BME280;43656;57.746;11.780;2022-10-04T03:30:12;101513.19;;;10.52;100.00
57827;BME280;43656;57.746;11.780;2022-10-04T03:32:38;101506.91;;;10.60;100.00
57827;BME280;43656;57.746;11.780;2022-10-04T03:35:06;101515.56;;;10.70;100.00
57827;BME280;43656;57.746;11.780;2022-10-04T03:37:36;101520.50;;;10.81;100.00
57827;BME280;43656;57.746;11.780;2022-10-04T03:40:04;101492.34;;;10.69;100.00
57827;BME280;43656;57.746;11.780;2022-10-04T03:42:35;101519.56;;;10.89;100.00
57827;BME280;43656;57.746;11.780;2022-10-04T03:45:13;101462.81;;;10.61;100.00
57827;BME280;43656;57.746;11.780;2022-10-04T03:47:43;101468.09;;;10.69;100.00
57827;BME280;43656;57.746;11.780;2022-10-04T03:50:23;101512.91;;;10.99;100.00
57827;BME280;43656;57.746;11.780;2022-10-04T03:52:56;101471.94;;;10.74;100.00
57827;BME280;43656;57.746;11.780;2022-10-04T03:55:24;101483.56;;;10.90;100.00
57827;BME280;43656;57.746;11.780;2022-10-04T03:57:55;101509.00;;;11.02;100.00
57827;BME280;43656;57.746;11.780;2022-10-04T04:00:21;101511.41;;;10.97;100.00
57827;BME280;43656;57.746;11.780;2022-10-04T04:02:55;101502.09;;;10.85;100.00
57827;BME280;43656;57.746;11.780;2022-10-04T04:05:23;101505.38;;;10.80;100.00
57827;BME280;43656;57.746;11.780;2022-10-04T04:10:46;101501.25;;;10.69;100.00
57827;BME280;43656;57.746;11.780;2022-10-04T04:16:00;101488.69;;;10.47;100.00
57827;BME280;43656;57.746;11.780;2022-10-04T04:18:29;101498.78;;;10.45;100.00
57827;BME280;43656;57.746;11.780;2022-10-04T04:20:58;101483.91;;;10.34;100.00
57827;BME280;43656;57.746;11.780;2022-10-04T04:23:31;101465.66;;;10.21;100.00
57827;BME280;43656;57.746;11.780;2022-10-04T04:29:15;101497.88;;;10.29;100.00
57827;BME280;43656;57.746;11.780;2022-10-04T04:34:27;101487.78;;;10.31;100.00
57827;BME280;43656;57.746;11.780;2022-10-04T04:37:12;101499.38;;;10.55;100.00
57827;BME280;43656;57.746;11.780;2022-10-04T04:39:57;101496.41;;;10.65;100.00
57827;BME280;43656;57.746;11.780;2022-10-04T04:42:36;101465.69;;;10.59;100.00
57827;BME280;43656;57.746;11.780;2022-10-04T04:45:05;101468.84;;;10.63;100.00
57827;BME280;43656;57.746;11.780;2022-10-04T04:47:42;101494.59;;;10.95;100.00
57827;BME280;43656;57.746;11.780;2022-10-04T04:50:20;101491.63;;;11.04;100.00
57827;BME280;43656;57.746;11.780;2022-10-04T04:52:50;101470.47;;;11.01;100.00
57827;BME280;43656;57.746;11.780;2022-10-04T04:55:24;101480.22;;;11.17;100.00
57827;BME280;43656;57.746;11.780;2022-10-04T04:57:52;101489.22;;;11.24;100.00
57827;BME280;43656;57.746;11.780;2022-10-04T05:00:21;101489.03;;;11.26;100.00
57827;BME280;43656;57.746;11.780;2022-10-04T05:02:55;101476.78;;;11.23;100.00
57827;BME280;43656;57.746;11.780;2022-10-04T05:05:25;101477.69;;;11.31;100.00
57827;BME280;43656;57.746;11.780;2022-10-04T05:08:15;101471.94;;;11.34;100.00
57827;BME280;43656;57.746;11.780;2022-10-04T05:10:48;101473.59;;;11.35;100.00
57827;BME280;43656;57.746;11.780;2022-10-04T05:13:30;101417.06;;;11.05;100.00
57827;BME280;43656;57.746;11.780;2022-10-04T05:16:00;101417.06;;;11.05;100.00
57827;BME280;43656;57.746;11.780;2022-10-04T05:18:33;101417.16;;;11.12;100.00
57827;BME280;43656;57.746;11.780;2022-10-04T05:21:19;101465.50;;;11.35;100.00
57827;BME280;43656;57.746;11.780;2022-10-04T05:23:48;101468.22;;;11.35;100.00
57827;BME280;43656;57.746;11.780;2022-10-04T05:26:28;101467.59;;;11.33;100.00
57827;BME280;43656;57.746;11.780;2022-10-04T05:28:58;101464.97;;;11.24;100.00
57827;BME280;43656;57.746;11.780;2022-10-04T05:33:54;101466.72;;;11.32;100.00
57827;BME280;43656;57.746;11.780;2022-10-04T05:39:15;101434.78;;;11.14;100.00
57827;BME280;43656;57.746;11.780;2022-10-04T05:41:56;101427.91;;;11.12;100.00
57827;BME280;43656;57.746;11.780;2022-10-04T05:44:37;101444.81;;;11.20;100.00
57827;BME280;43656;57.746;11.780;2022-10-04T05:47:13;101434.91;;;11.06;100.00
57827;BME280;43656;57.746;11.780;2022-10-04T05:49:42;101460.31;;;11.18;100.00
57827;BME280;43656;57.746;11.780;2022-10-04T05:52:28;101453.28;;;11.17;100.00
57827;BME280;43656;57.746;11.780;2022-10-04T06:01:12;101450.38;;;11.19;100.00
57827;BME280;43656;57.746;11.780;2022-10-04T06:12:19;101411.84;;;11.18;100.00
57827;BME280;43656;57.746;11.780;2022-10-04T06:15:05;101450.34;;;11.48;100.00
57827;BME280;43656;57.746;11.780;2022-10-04T06:17:42;101436.09;;;11.55;100.00
57827;BME280;43656;57.746;11.780;2022-10-04T06:22:47;101441.19;;;11.64;100.00
57827;BME280;43656;57.746;11.780;2022-10-04T06:25:26;101410.38;;;11.52;100.00
57827;BME280;43656;57.746;11.780;2022-10-04T06:28:10;101442.56;;;11.75;100.00
57827;BME280;43656;57.746;11.780;2022-10-04T06:39:37;101444.84;;;11.93;100.00
57827;BME280;43656;57.746;11.780;2022-10-04T06:48:09;101431.13;;;12.09;100.00
57827;BME280;43656;57.746;11.780;2022-10-04T06:53:43;101449.25;;;12.43;100.00
57827;BME280;43656;57.746;11.780;2022-10-04T07:01:52;101415.72;;;12.59;100.00
57827;BME280;43656;57.746;11.780;2022-10-04T07:04:41;101432.06;;;12.79;100.00
57827;BME280;43656;57.746;11.780;2022-10-04T07:07:33;101436.66;;;12.85;100.00
57827;BME280;43656;57.746;11.780;2022-10-04T07:12:39;101400.84;;;12.70;100.00
57827;BME280;43656;57.746;11.780;2022-10-04T07:15:14;101444.16;;;12.90;100.00
57827;BME280;43656;57.746;11.780;2022-10-04T07:17:44;101438.53;;;12.85;100.00
57827;BME280;43656;57.746;11.780;2022-10-04T07:20:27;101449.38;;;12.91;100.00
57827;BME280;43656;57.746;11.780;2022-10-04T07:23:03;101451.91;;;13.00;100.00
57827;BME280;43656;57.746;11.780;2022-10-04T07:25:36;101447.16;;;13.02;100.00
57827;BME280;43656;57.746;11.780;2022-10-04T07:30:58;101449.69;;;13.10;100.00
57827;BME280;43656;57.746;11.780;2022-10-04T07:33:30;101430.09;;;13.01;100.00
57827;BME280;43656;57.746;11.780;2022-10-04T07:36:11;101451.78;;;13.14;100.00
57827;BME280;43656;57.746;11.780;2022-10-04T07:38:43;101454.72;;;13.20;100.00
57827;BME280;43656;57.746;11.780;2022-10-04T07:44:13;101463.63;;;13.13;100.00
57827;BME280;43656;57.746;11.780;2022-10-04T07:49:01;101473.91;;;13.25;100.00
57827;BME280;43656;57.746;11.780;2022-10-04T07:51:35;101472.41;;;13.22;100.00
57827;BME280;43656;57.746;11.780;2022-10-04T07:54:26;101459.25;;;13.12;100.00
57827;BME280;43656;57.746;11.780;2022-10-04T07:56:59;101456.16;;;13.15;100.00
57827;BME280;43656;57.746;11.780;2022-10-04T07:59:36;101478.13;;;13.40;100.00
57827;BME280;43656;57.746;11.780;2022-10-04T08:02:24;101480.66;;;13.49;100.00
57827;BME280;43656;57.746;11.780;2022-10-04T08:19:27;101475.31;;;13.69;100.00
57827;BME280;43656;57.746;11.780;2022-10-04T08:40:16;101481.00;;;14.00;100.00
57827;BME280;43656;57.746;11.780;2022-10-04T08:48:16;101477.91;;;14.10;100.00
57827;BME280;43656;57.746;11.780;2022-10-04T09:08:24;101442.72;;;14.23;100.00
57827;BME280;43656;57.746;11.780;2022-10-04T09:19:22;101456.28;;;14.43;100.00
57827;BME280;43656;57.746;11.780;2022-10-04T09:22:15;101451.75;;;14.50;100.00
57827;BME280;43656;57.746;11.780;2022-10-04T09:42:13;101430.66;;;14.46;100.00
57827;BME280;43656;57.746;11.780;2022-10-04T09:44:57;101440.91;;;14.50;100.00
57827;BME280;43656;57.746;11.780;2022-10-04T09:47:57;101459.63;;;14.65;100.00
57827;BME280;43656;57.746;11.780;2022-10-04T09:56:06;101438.19;;;14.70;100.00
57827;BME280;43656;57.746;11.780;2022-10-04T10:07:03;101450.59;;;15.11;100.00
57827;BME280;43656;57.746;11.780;2022-10-04T10:12:34;101443.84;;;15.34;100.00
57827;BME280;43656;57.746;11.780;2022-10-04T10:41:26;101451.75;;;15.80;100.00
57827;BME280;43656;57.746;11.780;2022-10-04T10:46:49;101453.47;;;15.74;100.00
57827;BME280;43656;57.746;11.780;2022-10-04T10:49:44;101451.28;;;15.90;100.00
57827;BME280;43656;57.746;11.780;2022-10-04T11:06:09;101427.13;;;15.82;100.00
57827;BME280;43656;57.746;11.780;2022-10-04T11:28:20;101387.06;;;15.77;100.00
57827;BME280;43656;57.746;11.780;2022-10-04T11:55:47;101396.41;;;16.13;100.00
57827;BME280;43656;57.746;11.780;2022-10-04T12:09:02;101392.31;;;16.04;100.00
57827;BME280;43656;57.746;11.780;2022-10-04T12:11:58;101367.69;;;15.98;100.00
57827;BME280;43656;57.746;11.780;2022-10-04T12:21:12;101365.44;;;16.20;100.00
57827;BME280;43656;57.746;11.780;2022-10-04T12:32:21;101356.69;;;16.80;100.00
57827;BME280;43656;57.746;11.780;2022-10-04T12:38:04;101364.41;;;16.83;100.00
57827;BME280;43656;57.746;11.780;2022-10-04T12:40:35;101366.22;;;16.89;100.00
57827;BME280;43656;57.746;11.780;2022-10-04T12:43:34;101370.22;;;16.87;100.00
57827;BME280;43656;57.746;11.780;2022-10-04T12:56:46;101362.88;;;16.69;100.00
57827;BME280;43656;57.746;11.780;2022-10-04T13:02:02;101350.91;;;16.52;100.00
57827;BME280;43656;57.746;11.780;2022-10-04T13:04:53;101316.56;;;16.20;100.00
57827;BME280;43656;57.746;11.780;2022-10-04T13:10:34;101343.59;;;16.34;100.00
57827;BME280;43656;57.746;11.780;2022-10-04T13:27:26;101339.88;;;16.28;100.00
57827;BME280;43656;57.746;11.780;2022-10-04T13:29:58;101309.75;;;16.11;100.00
57827;BME280;43656;57.746;11.780;2022-10-04T13:32:39;101302.44;;;16.12;100.00
57827;BME280;43656;57.746;11.780;2022-10-04T13:40:58;101304.25;;;16.18;100.00
57827;BME280;43656;57.746;11.780;2022-10-04T13:44:19;101303.44;;;16.17;100.00
57827;BME280;43656;57.746;11.780;2022-10-04T13:55:21;101291.91;;;16.40;100.00
57827;BME280;43656;57.746;11.780;2022-10-04T14:01:39;101280.66;;;16.55;100.00
57827;BME280;43656;57.746;11.780;2022-10-04T14:13:26;101258.84;;;16.25;100.00
57827;BME280;43656;57.746;11.780;2022-10-04T14:22:06;101220.13;;;15.74;100.00
57827;BME280;43656;57.746;11.780;2022-10-04T14:25:02;101239.50;;;15.78;100.00
57827;BME280;43656;57.746;11.780;2022-10-04T14:40:51;101230.28;;;15.79;100.00
57827;BME280;43656;57.746;11.780;2022-10-04T14:54:09;101226.53;;;15.80;100.00
57827;BME280;43656;57.746;11.780;2022-10-04T15:10:51;101077.84;;;15.02;100.00
57827;BME280;43656;57.746;11.780;2022-10-04T15:13:52;101189.75;;;15.59;100.00
57827;BME280;43656;57.746;11.780;2022-10-04T15:19:10;101182.72;;;15.51;100.00
57827;BME280;43656;57.746;11.780;2022-10-04T15:22:10;101172.19;;;15.43;100.00
57827;BME280;43656;57.746;11.780;2022-10-04T15:24:47;101166.81;;;15.37;100.00
57827;BME280;43656;57.746;11.780;2022-10-04T15:32:54;101167.53;;;15.25;100.00
57827;BME280;43656;57.746;11.780;2022-10-04T15:52:33;101126.34;;;14.85;100.00
57827;BME280;43656;57.746;11.780;2022-10-04T15:55:27;101153.16;;;15.00;100.00
57827;BME280;43656;57.746;11.780;2022-10-04T15:58:01;101143.56;;;14.97;100.00
57827;BME280;43656;57.746;11.780;2022-10-04T16:00:46;101121.41;;;14.75;100.00
57827;BME280;43656;57.746;11.780;2022-10-04T16:06:02;101158.44;;;14.88;100.00
57827;BME280;43656;57.746;11.780;2022-10-04T16:11:54;101099.72;;;14.50;100.00
57827;BME280;43656;57.746;11.780;2022-10-04T16:22:13;101134.91;;;14.82;100.00
57827;BME280;43656;57.746;11.780;2022-10-04T16:24:43;101125.19;;;14.74;100.00
57827;BME280;43656;57.746;11.780;2022-10-04T16:27:41;101112.72;;;14.67;100.00
57827;BME280;43656;57.746;11.780;2022-10-04T16:30:24;101130.16;;;14.77;100.00
57827;BME280;43656;57.746;11.780;2022-10-04T16:35:36;101128.31;;;14.71;100.00
57827;BME280;43656;57.746;11.780;2022-10-04T16:38:22;101118.31;;;14.72;100.00
57827;BME280;43656;57.746;11.780;2022-10-04T16:46:07;101104.19;;;14.63;100.00
57827;BME280;43656;57.746;11.780;2022-10-04T16:51:22;101062.41;;;14.46;100.00
57827;BME280;43656;57.746;11.780;2022-10-04T17:02:40;101114.00;;;14.64;100.00
57827;BME280;43656;57.746;11.780;2022-10-04T17:13:26;101105.97;;;14.44;100.00
57827;BME280;43656;57.746;11.780;2022-10-04T17:16:08;101118.34;;;14.65;100.00
57827;BME280;43656;57.746;11.780;2022-10-04T17:21:56;101104.81;;;14.65;100.00
57827;BME280;43656;57.746;11.780;2022-10-04T17:38:39;100987.47;;;14.40;100.00
57827;BME280;43656;57.746;11.780;2022-10-04T17:44:12;101020.13;;;14.51;100.00
57827;BME280;43656;57.746;11.780;2022-10-04T17:49:30;101038.81;;;14.60;100.00
57827;BME280;43656;57.746;11.780;2022-10-04T17:52:24;101007.25;;;14.40;100.00
57827;BME280;43656;57.746;11.780;2022-10-04T17:55:56;101013.28;;;14.42;100.00
57827;BME280;43656;57.746;11.780;2022-10-04T17:58:14;101037.41;;;14.57;100.00
57827;BME280;43656;57.746;11.780;2022-10-04T18:01:10;101033.38;;;14.60;100.00
57827;BME280;43656;57.746;11.780;2022-10-04T18:04:07;101032.94;;;14.63;100.00
57827;BME280;43656;57.746;11.780;2022-10-04T18:09:32;101033.78;;;14.63;100.00
57827;BME280;43656;57.746;11.780;2022-10-04T18:12:04;100988.50;;;14.45;100.00
57827;BME280;43656;57.746;11.780;2022-10-04T18:17:40;100994.84;;;14.64;100.00
57827;BME280;43656;57.746;11.780;2022-10-04T18:22:57;100969.75;;;14.50;100.00
57827;BME280;43656;57.746;11.780;2022-10-04T18:25:25;100992.34;;;14.63;100.00
57827;BME280;43656;57.746;11.780;2022-10-04T18:33:23;101000.31;;;14.57;100.00
57827;BME280;43656;57.746;11.780;2022-10-04T18:36:27;101023.56;;;14.65;100.00
57827;BME280;43656;57.746;11.780;2022-10-04T18:41:41;101026.22;;;14.72;100.00
57827;BME280;43656;57.746;11.780;2022-10-04T18:44:19;100933.94;;;14.17;100.00
57827;BME280;43656;57.746;11.780;2022-10-04T18:46:46;101034.09;;;14.73;100.00
57827;BME280;43656;57.746;11.780;2022-10-04T18:49:20;101030.38;;;14.74;100.00
57827;BME280;43656;57.746;11.780;2022-10-04T19:00:11;100948.91;;;14.51;100.00
57827;BME280;43656;57.746;11.780;2022-10-04T19:03:38;100910.31;;;14.30;100.00
57827;BME280;43656;57.746;11.780;2022-10-04T19:06:25;100979.56;;;14.70;100.00
57827;BME280;43656;57.746;11.780;2022-10-04T19:19:58;100916.44;;;14.19;100.00
57827;BME280;43656;57.746;11.780;2022-10-04T19:25:55;100988.66;;;14.57;100.00
57827;BME280;43656;57.746;11.780;2022-10-04T19:28:26;100968.47;;;14.46;100.00
57827;BME280;43656;57.746;11.780;2022-10-04T19:33:54;101001.03;;;14.71;100.00
57827;BME280;43656;57.746;11.780;2022-10-04T19:49:49;100949.06;;;14.56;100.00
57827;BME280;43656;57.746;11.780;2022-10-04T20:00:58;100938.50;;;14.48;100.00
57827;BME280;43656;57.746;11.780;2022-10-04T20:03:26;100952.59;;;14.56;100.00
57827;BME280;43656;57.746;11.780;2022-10-04T20:05:52;100929.38;;;14.42;100.00
57827;BME280;43656;57.746;11.780;2022-10-04T20:21:43;100921.28;;;14.36;100.00
57827;BME280;43656;57.746;11.780;2022-10-04T20:32:02;100945.69;;;14.61;100.00
57827;BME280;43656;57.746;11.780;2022-10-04T20:37:04;100918.53;;;14.42;100.00
57827;BME280;43656;57.746;11.780;2022-10-04T20:42:36;100938.22;;;14.56;100.00
57827;BME280;43656;57.746;11.780;2022-10-04T20:45:17;100918.53;;;14.42;100.00
57827;BME280;43656;57.746;11.780;2022-10-04T20:47:58;100905.22;;;14.41;100.00
57827;BME280;43656;57.746;11.780;2022-10-04T20:50:28;100923.47;;;14.52;100.00
57827;BME280;43656;57.746;11.780;2022-10-04T20:52:58;100932.66;;;14.51;100.00
57827;BME280;43656;57.746;11.780;2022-10-04T20:55:28;100925.78;;;14.48;100.00
57827;BME280;43656;57.746;11.780;2022-10-04T20:57:55;100911.72;;;14.33;100.00
57827;BME280;43656;57.746;11.780;2022-10-04T21:00:23;100929.75;;;14.46;100.00
57827;BME280;43656;57.746;11.780;2022-10-04T21:03:05;100899.44;;;14.37;100.00
57827;BME280;43656;57.746;11.780;2022-10-04T21:05:30;100835.47;;;13.93;100.00
57827;BME280;43656;57.746;11.780;2022-10-04T21:11:20;100892.72;;;14.40;100.00
57827;BME280;43656;57.746;11.780;2022-10-04T21:13:57;100882.41;;;14.30;100.00
57827;BME280;43656;57.746;11.780;2022-10-04T21:16:40;100870.94;;;14.34;100.00
57827;BME280;43656;57.746;11.780;2022-10-04T21:21:54;100891.91;;;14.39;100.00
57827;BME280;43656;57.746;11.780;2022-10-04T21:27:09;100841.16;;;14.09;100.00
57827;BME280;43656;57.746;11.780;2022-10-04T21:29:35;100876.72;;;14.38;100.00
57827;BME280;43656;57.746;11.780;2022-10-04T21:32:01;100868.22;;;14.34;100.00
57827;BME280;43656;57.746;11.780;2022-10-04T21:34:27;100874.41;;;14.42;100.00
57827;BME280;43656;57.746;11.780;2022-10-04T21:36:52;100878.38;;;14.39;100.00
57827;BME280;43656;57.746;11.780;2022-10-04T21:39:18;100687.94;;;13.22;100.00
57827;BME280;43656;57.746;11.780;2022-10-04T21:41:43;100834.25;;;14.14;100.00
57827;BME280;43656;57.746;11.780;2022-10-04T21:44:09;100860.31;;;14.33;100.00
57827;BME280;43656;57.746;11.780;2022-10-04T21:46:35;100836.75;;;14.15;100.00
57827;BME280;43656;57.746;11.780;2022-10-04T21:49:03;100806.41;;;14.06;100.00
57827;BME280;43656;57.746;11.780;2022-10-04T21:51:29;100847.59;;;14.33;100.00
57827;BME280;43656;57.746;11.780;2022-10-04T21:54:02;100847.22;;;14.30;100.00
57827;BME280;43656;57.746;11.780;2022-10-04T21:56:27;100788.22;;;13.95;100.00
57827;BME280;43656;57.746;11.780;2022-10-04T21:58:53;100840.00;;;14.24;100.00
57827;BME280;43656;57.746;11.780;2022-10-04T22:01:18;100845.13;;;14.32;100.00
57827;BME280;43656;57.746;11.780;2022-10-04T22:03:43;100814.28;;;14.15;100.00
57827;BME280;43656;57.746;11.780;2022-10-04T22:06:09;100838.50;;;14.28;100.00
57827;BME280;43656;57.746;11.780;2022-10-04T22:08:34;100831.59;;;14.32;100.00
57827;BME280;43656;57.746;11.780;2022-10-04T22:11:00;100823.16;;;14.22;100.00
57827;BME280;43656;57.746;11.780;2022-10-04T22:13:25;100825.41;;;14.25;100.00
57827;BME280;43656;57.746;11.780;2022-10-04T22:15:51;100825.41;;;14.25;100.00
57827;BME280;43656;57.746;11.780;2022-10-04T22:18:16;100818.94;;;14.26;100.00
57827;BME280;43656;57.746;11.780;2022-10-04T22:20:42;100810.31;;;14.17;100.00
57827;BME280;43656;57.746;11.780;2022-10-04T22:23:17;100821.50;;;14.21;100.00
57827;BME280;43656;57.746;11.780;2022-10-04T22:25:43;100821.66;;;14.26;100.00
57827;BME280;43656;57.746;11.780;2022-10-04T22:30:43;100801.13;;;14.18;100.00
57827;BME280;43656;57.746;11.780;2022-10-04T22:33:34;100805.72;;;14.18;100.00
57827;BME280;43656;57.746;11.780;2022-10-04T22:36:26;100791.34;;;14.17;100.00
57827;BME280;43656;57.746;11.780;2022-10-04T22:41:38;100757.34;;;14.03;100.00
57827;BME280;43656;57.746;11.780;2022-10-04T22:44:15;100782.38;;;14.17;100.00
57827;BME280;43656;57.746;11.780;2022-10-04T22:46:43;100783.88;;;14.13;100.00
57827;BME280;43656;57.746;11.780;2022-10-04T22:49:15;100747.78;;;14.00;100.00
57827;BME280;43656;57.746;11.780;2022-10-04T22:51:42;100775.50;;;14.21;100.00
57827;BME280;43656;57.746;11.780;2022-10-04T22:54:20;100786.03;;;14.29;100.00
57827;BME280;43656;57.746;11.780;2022-10-04T22:56:46;100801.38;;;14.35;100.00
57827;BME280;43656;57.746;11.780;2022-10-04T22:59:14;100789.34;;;14.31;100.00
57827;BME280;43656;57.746;11.780;2022-10-04T23:01:41;100789.16;;;14.26;100.00
57827;BME280;43656;57.746;11.780;2022-10-04T23:04:21;100790.53;;;14.35;100.00
57827;BME280;43656;57.746;11.780;2022-10-04T23:06:49;100674.13;;;13.61;100.00
57827;BME280;43656;57.746;11.780;2022-10-04T23:09:15;100698.84;;;13.83;100.00
57827;BME280;43656;57.746;11.780;2022-10-04T23:11:41;100786.78;;;14.36;100.00
57827;BME280;43656;57.746;11.780;2022-10-04T23:14:06;100777.69;;;14.30;100.00
57827;BME280;43656;57.746;11.780;2022-10-04T23:16:32;100750.34;;;14.14;100.00
57827;BME280;43656;57.746;11.780;2022-10-04T23:19:00;100752.03;;;14.15;100.00
57827;BME280;43656;57.746;11.780;2022-10-04T23:21:32;100777.44;;;14.32;100.00
57827;BME280;43656;57.746;11.780;2022-10-04T23:24:12;100744.81;;;14.08;100.00
57827;BME280;43656;57.746;11.780;2022-10-04T23:26:40;100770.59;;;14.29;100.00
57827;BME280;43656;57.746;11.780;2022-10-04T23:29:30;100757.13;;;14.23;100.00
57827;BME280;43656;57.746;11.780;2022-10-04T23:31:57;100760.47;;;14.25;100.00
57827;BME280;43656;57.746;11.780;2022-10-04T23:36:50;100727.22;;;14.18;100.00
57827;BME280;43656;57.746;11.780;2022-10-04T23:39:28;100749.63;;;14.25;100.00
57827;BME280;43656;57.746;11.780;2022-10-04T23:41:55;100709.03;;;14.06;100.00
57827;BME280;43656;57.746;11.780;2022-10-04T23:44:29;100695.72;;;14.05;100.00
57827;BME280;43656;57.746;11.780;2022-10-04T23:46:57;100683.09;;;13.99;100.00